createdAt,value
2022-10-22T00:00:08.243Z,16.74
2022-10-22T00:02:35.791Z,16.66
2022-10-22T00:05:02.309Z,16.31
2022-10-22T00:07:28.826Z,16.83
2022-10-22T00:09:55.425Z,16.61
2022-10-22T00:12:22.285Z,16.48
2022-10-22T00:14:48.829Z,16.50
2022-10-22T00:17:15.378Z,16.58
2022-10-22T00:19:41.933Z,16.43
2022-10-22T00:22:09.979Z,16.62
2022-10-22T00:24:38.224Z,16.80
2022-10-22T00:27:06.187Z,16.89
2022-10-22T00:29:32.821Z,17.17
2022-10-22T00:31:59.399Z,17.60
2022-10-22T00:34:26.138Z,17.24
2022-10-22T00:36:53.290Z,16.82
2022-10-22T00:39:22.047Z,16.67
2022-10-22T00:41:50.102Z,16.98
2022-10-22T00:44:54.302Z,16.82
2022-10-22T00:47:23.819Z,17.09
2022-10-22T00:49:51.813Z,16.90
2022-10-22T00:52:19.961Z,17.33
2022-10-22T00:54:46.897Z,17.49
2022-10-22T00:57:13.894Z,17.22
2022-10-22T00:59:40.543Z,17.02
2022-10-22T01:02:07.085Z,16.73
2022-10-22T01:04:33.635Z,17.21
2022-10-22T01:07:00.209Z,17.20
2022-10-22T01:09:41.955Z,17.08
2022-10-22T01:12:30.407Z,16.91
2022-10-22T01:15:15.560Z,16.52
2022-10-22T01:17:55.707Z,16.53
2022-10-22T01:20:41.187Z,16.76
2022-10-22T01:23:17.224Z,16.65
2022-10-22T01:25:58.477Z,16.91
2022-10-22T01:28:57.849Z,17.05
2022-10-22T01:31:27.620Z,16.88
2022-10-22T01:33:55.181Z,16.99
2022-10-22T01:36:22.054Z,17.02
2022-10-22T01:38:49.839Z,16.86
2022-10-22T01:41:16.522Z,17.25
2022-10-22T01:43:43.101Z,17.20
2022-10-22T01:46:11.525Z,16.98
2022-10-22T01:48:57.851Z,16.80
2022-10-22T01:51:30.946Z,17.34
2022-10-22T01:54:27.296Z,17.27
2022-10-22T01:57:17.819Z,17.45
2022-10-22T02:00:07.952Z,17.32
2022-10-22T02:02:43.525Z,17.21
2022-10-22T02:05:18.889Z,17.00
2022-10-22T02:08:01.273Z,17.04
2022-10-22T02:10:29.583Z,17.16
2022-10-22T02:12:58.454Z,17.14
2022-10-22T02:15:27.577Z,16.98
2022-10-22T02:17:57.114Z,16.60
2022-10-22T02:20:28.473Z,16.81
2022-10-22T02:22:56.007Z,16.56
2022-10-22T02:25:27.570Z,16.52
2022-10-22T02:28:16.015Z,16.61
2022-10-22T02:30:47.369Z,16.80
2022-10-22T02:33:21.030Z,16.92
2022-10-22T02:35:49.689Z,16.78
2022-10-22T02:38:16.909Z,16.96
2022-10-22T02:40:43.632Z,17.08
2022-10-22T02:43:10.147Z,16.77
2022-10-22T02:45:36.855Z,16.91
2022-10-22T02:48:03.968Z,16.89
2022-10-22T02:50:30.513Z,16.54
2022-10-22T02:52:56.957Z,16.36
2022-10-22T02:55:23.480Z,16.35
2022-10-22T02:57:49.967Z,16.69
2022-10-22T03:00:16.622Z,16.87
2022-10-22T03:02:43.059Z,16.84
2022-10-22T03:05:09.694Z,16.96
2022-10-22T03:07:36.189Z,17.28
2022-10-22T03:10:02.845Z,17.12
2022-10-22T03:12:29.960Z,17.46
2022-10-22T03:14:56.452Z,17.18
2022-10-22T03:17:22.956Z,17.41
2022-10-22T03:19:49.439Z,17.55
2022-10-22T03:22:23.021Z,17.16
2022-10-22T03:24:53.731Z,16.84
2022-10-22T03:27:21.896Z,16.44
2022-10-22T03:29:50.822Z,16.32
2022-10-22T03:32:17.319Z,16.57
2022-10-22T03:34:43.875Z,16.47
2022-10-22T03:37:10.780Z,17.15
2022-10-22T03:39:38.154Z,17.58
2022-10-22T03:42:06.563Z,17.25
2022-10-22T03:44:33.406Z,17.59
2022-10-22T03:47:02.514Z,16.91
2022-10-22T03:49:29.715Z,16.59
2022-10-22T03:51:56.221Z,16.52
2022-10-22T03:54:22.692Z,16.54
2022-10-22T03:56:49.174Z,16.50
2022-10-22T03:59:16.077Z,16.70
2022-10-22T04:01:42.569Z,17.13
2022-10-22T04:04:09.075Z,16.71
2022-10-22T04:06:35.634Z,16.85
2022-10-22T04:09:02.264Z,17.11
2022-10-22T04:11:28.853Z,16.91
2022-10-22T04:13:55.356Z,16.17
2022-10-22T04:16:25.039Z,16.76
2022-10-22T04:18:54.043Z,16.96
2022-10-22T04:21:20.617Z,17.03
2022-10-22T04:23:52.859Z,17.39
2022-10-22T04:26:19.945Z,17.33
2022-10-22T04:28:48.474Z,17.28
2022-10-22T04:31:17.941Z,17.16
2022-10-22T04:33:44.510Z,17.24
2022-10-22T04:36:16.854Z,17.34
2022-10-22T04:38:45.519Z,17.38
2022-10-22T04:41:17.306Z,16.70
2022-10-22T04:43:44.949Z,17.06
2022-10-22T04:46:15.076Z,16.95
2022-10-22T04:48:42.968Z,17.00
2022-10-22T04:51:12.639Z,17.11
2022-10-22T04:53:40.524Z,16.93
2022-10-22T04:56:16.317Z,17.14
2022-10-22T04:58:43.877Z,17.11
2022-10-22T05:01:11.451Z,17.01
2022-10-22T05:03:38.054Z,16.82
2022-10-22T05:06:04.703Z,16.93
2022-10-22T05:08:31.302Z,16.72
2022-10-22T05:10:57.786Z,16.80
2022-10-22T05:13:24.294Z,17.05
2022-10-22T05:15:50.994Z,17.16
2022-10-22T05:18:20.315Z,16.90
2022-10-22T05:20:49.144Z,17.02
2022-10-22T05:23:15.729Z,17.11
2022-10-22T05:25:42.253Z,17.21
2022-10-22T05:28:08.858Z,17.20
2022-10-22T05:30:35.510Z,17.10
2022-10-22T05:33:02.021Z,17.06
2022-10-22T05:35:28.628Z,17.21
2022-10-22T05:40:31.234Z,16.84
2022-10-22T05:42:58.818Z,16.94
2022-10-22T05:45:25.272Z,16.87
2022-10-22T05:47:52.274Z,16.95
2022-10-22T05:50:18.810Z,17.17
2022-10-22T05:52:45.321Z,17.07
2022-10-22T05:55:11.858Z,17.08
2022-10-22T05:57:39.733Z,17.04
2022-10-22T06:00:06.947Z,16.88
2022-10-22T06:02:33.659Z,17.20
2022-10-22T06:05:00.184Z,17.32
2022-10-22T06:07:26.681Z,17.51
2022-10-22T06:09:53.760Z,16.98
2022-10-22T06:12:20.262Z,16.73
2022-10-22T06:14:46.800Z,17.31
2022-10-22T06:17:13.494Z,17.61
2022-10-22T06:19:39.969Z,17.49
2022-10-22T06:22:06.586Z,17.18
2022-10-22T06:24:33.226Z,17.14
2022-10-22T06:26:59.874Z,17.35
2022-10-22T06:29:26.367Z,17.41
2022-10-22T06:31:52.831Z,17.10
2022-10-22T06:34:19.532Z,17.08
2022-10-22T06:36:46.855Z,17.26
2022-10-22T06:39:16.627Z,17.09
2022-10-22T06:41:43.157Z,16.79
2022-10-22T06:44:15.595Z,16.83
2022-10-22T06:46:43.575Z,17.23
2022-10-22T06:49:13.920Z,17.15
2022-10-22T06:51:40.505Z,16.84
2022-10-22T06:54:07.209Z,16.94
2022-10-22T06:56:33.778Z,17.18
2022-10-22T06:59:00.322Z,17.27
2022-10-22T07:01:30.794Z,16.89
2022-10-22T07:03:57.747Z,16.93
2022-10-22T07:06:25.882Z,17.22
2022-10-22T07:08:54.006Z,17.42
2022-10-22T07:11:23.214Z,17.68
2022-10-22T07:13:49.881Z,18.15
2022-10-22T07:16:17.713Z,17.71
2022-10-22T07:18:45.190Z,18.13
2022-10-22T07:21:13.610Z,18.69
2022-10-22T07:23:40.351Z,19.35
2022-10-22T07:26:08.433Z,19.31
2022-10-22T07:28:37.921Z,19.79
2022-10-22T07:31:04.817Z,21.10
2022-10-22T07:33:31.338Z,21.24
2022-10-22T07:36:02.817Z,21.13
2022-10-22T07:38:29.745Z,20.43
2022-10-22T07:40:56.388Z,20.73
2022-10-22T07:43:23.381Z,20.39
2022-10-22T07:45:50.226Z,21.25
2022-10-22T07:48:17.115Z,21.53
2022-10-22T07:53:11.218Z,20.37
2022-10-22T07:55:37.874Z,22.05
2022-10-22T07:58:04.415Z,20.96
2022-10-22T08:00:31.036Z,21.62
2022-10-22T08:02:57.543Z,20.91
2022-10-22T08:05:24.192Z,22.13
2022-10-22T08:07:50.674Z,21.84
2022-10-22T08:10:17.450Z,21.89
2022-10-22T08:12:44.265Z,23.22
2022-10-22T08:15:11.060Z,21.86
2022-10-22T08:17:37.745Z,21.47
2022-10-22T08:20:04.610Z,21.79
2022-10-22T08:22:31.261Z,21.99
2022-10-22T08:24:57.866Z,23.46
2022-10-22T08:27:24.374Z,22.69
2022-10-22T08:29:50.895Z,22.83
2022-10-22T08:32:17.571Z,24.18
2022-10-22T08:34:44.073Z,23.64
2022-10-22T08:37:14.196Z,22.19
2022-10-22T08:39:44.569Z,24.28
2022-10-22T08:42:29.762Z,24.74
2022-10-22T08:45:13.946Z,24.10
2022-10-22T08:48:02.428Z,23.98
2022-10-22T08:50:35.505Z,24.53
2022-10-22T08:53:06.615Z,23.19
2022-10-22T08:55:37.349Z,23.97
2022-10-22T08:58:20.209Z,24.80
2022-10-22T09:00:50.725Z,24.22
2022-10-22T09:04:05.420Z,24.44
2022-10-22T09:06:35.257Z,24.01
2022-10-22T09:09:05.976Z,24.31
2022-10-22T09:11:38.594Z,24.71
2022-10-22T09:14:06.345Z,26.06
2022-10-22T09:16:35.859Z,25.39
2022-10-22T09:19:24.366Z,24.53
2022-10-22T09:22:20.220Z,24.03
2022-10-22T09:24:49.194Z,24.29
2022-10-22T09:27:21.522Z,26.08
2022-10-22T09:29:48.345Z,25.93
2022-10-22T09:32:16.492Z,26.16
2022-10-22T09:34:47.947Z,26.40
2022-10-22T09:37:19.016Z,25.40
2022-10-22T09:39:50.706Z,27.20
2022-10-22T09:42:19.110Z,27.52
2022-10-22T09:44:52.700Z,27.04
2022-10-22T09:47:43.547Z,25.63
2022-10-22T09:50:39.226Z,26.38
2022-10-22T09:53:17.593Z,27.48
2022-10-22T09:55:49.057Z,26.69
2022-10-22T09:58:17.462Z,27.95
2022-10-22T10:00:46.489Z,27.26
2022-10-22T10:03:24.229Z,27.52
2022-10-22T10:06:00.168Z,26.61
2022-10-22T10:08:30.153Z,26.70
2022-10-22T10:11:02.665Z,26.92
2022-10-22T10:13:44.179Z,27.28
2022-10-22T10:16:34.950Z,28.99
2022-10-22T10:19:20.015Z,27.00
2022-10-22T10:22:30.309Z,29.31
2022-10-22T10:25:28.191Z,27.66
2022-10-22T10:28:00.689Z,26.63
2022-10-22T10:30:27.308Z,28.42
2022-10-22T10:33:29.590Z,28.58
2022-10-22T10:36:16.292Z,28.01
2022-10-22T10:38:58.238Z,27.95
2022-10-22T10:41:49.967Z,29.92
2022-10-22T10:44:40.952Z,28.75
2022-10-22T10:47:13.725Z,29.23
2022-10-22T10:49:42.512Z,29.82
2022-10-22T10:52:22.781Z,29.17
2022-10-22T10:54:55.287Z,25.49
2022-10-22T10:57:37.021Z,24.13
2022-10-22T11:00:11.550Z,24.83
2022-10-22T11:03:06.628Z,23.96
2022-10-22T11:05:38.341Z,23.36
2022-10-22T11:08:14.610Z,23.54
2022-10-22T11:10:49.565Z,23.85
2022-10-22T11:13:22.367Z,24.24
2022-10-22T11:15:55.091Z,24.10
2022-10-22T11:18:32.238Z,24.34
2022-10-22T11:21:13.201Z,24.72
2022-10-22T11:24:08.110Z,22.74
2022-10-22T11:26:56.920Z,22.36
2022-10-22T11:29:29.433Z,23.28
2022-10-22T11:32:01.484Z,24.03
2022-10-22T11:34:54.332Z,23.87
2022-10-22T11:37:24.341Z,24.92
2022-10-22T11:39:53.755Z,24.73
2022-10-22T11:42:33.131Z,23.69
2022-10-22T11:45:28.553Z,24.24
2022-10-22T11:48:09.977Z,24.28
2022-10-22T11:50:52.848Z,25.17
2022-10-22T11:53:31.169Z,25.66
2022-10-22T11:56:22.378Z,25.68
2022-10-22T11:58:52.308Z,26.03
2022-10-22T12:01:27.177Z,25.17
2022-10-22T12:04:05.967Z,26.68
2022-10-22T12:06:53.126Z,25.41
2022-10-22T12:09:22.161Z,26.06
2022-10-22T12:11:50.927Z,25.31
2022-10-22T12:14:22.880Z,25.84
2022-10-22T12:17:05.585Z,25.53
2022-10-22T12:19:37.410Z,25.52
2022-10-22T12:22:10.028Z,24.06
2022-10-22T12:24:44.541Z,23.94
2022-10-22T12:27:22.848Z,23.98
2022-10-22T12:29:58.430Z,23.52
2022-10-22T12:32:37.409Z,23.35
2022-10-22T12:35:14.425Z,23.80
2022-10-22T12:37:41.343Z,22.89
2022-10-22T12:40:26.369Z,24.46
2022-10-22T12:42:55.985Z,24.66
2022-10-22T12:45:25.557Z,25.08
2022-10-22T12:47:56.809Z,24.77
2022-10-22T12:50:31.074Z,24.46
2022-10-22T12:52:57.641Z,24.87
2022-10-22T12:55:25.909Z,24.32
2022-10-22T12:57:53.041Z,24.69
2022-10-22T13:00:23.180Z,25.08
2022-10-22T13:02:49.774Z,24.84
2022-10-22T13:05:19.342Z,24.77
2022-10-22T13:07:54.271Z,24.47
2022-10-22T13:10:32.232Z,22.40
2022-10-22T13:12:59.134Z,22.72
2022-10-22T13:15:28.324Z,23.42
2022-10-22T13:18:22.363Z,23.73
2022-10-22T13:20:58.809Z,23.93
2022-10-22T13:23:28.071Z,24.09
2022-10-22T13:25:59.250Z,23.57
2022-10-22T13:28:26.674Z,23.91
2022-10-22T13:30:59.146Z,23.91
2022-10-22T13:33:36.833Z,23.83
2022-10-22T13:36:03.822Z,23.44
2022-10-22T13:38:30.937Z,23.19
2022-10-22T13:40:58.577Z,23.13
2022-10-22T13:43:25.758Z,23.09
2022-10-22T13:45:55.438Z,24.08
2022-10-22T13:48:23.709Z,24.76
2022-10-22T13:50:51.376Z,23.58
2022-10-22T13:53:20.533Z,23.67
2022-10-22T13:55:47.511Z,23.43
2022-10-22T14:00:57.700Z,22.71
2022-10-22T14:03:31.473Z,22.96
2022-10-22T14:05:58.352Z,23.29
2022-10-22T14:08:26.913Z,23.20
2022-10-22T14:10:53.764Z,23.25
2022-10-22T14:13:21.492Z,23.39
2022-10-22T14:15:50.188Z,23.38
2022-10-22T14:18:26.259Z,23.15
2022-10-22T14:20:59.790Z,22.95
2022-10-22T14:23:31.392Z,22.63
2022-10-22T14:25:59.251Z,22.92
2022-10-22T14:28:25.843Z,22.91
2022-10-22T14:30:53.581Z,23.03
2022-10-22T14:33:31.404Z,23.27
2022-10-22T14:36:00.217Z,23.06
2022-10-22T14:38:26.800Z,22.73
2022-10-22T14:40:53.519Z,23.02
2022-10-22T14:43:28.923Z,23.16
2022-10-22T14:45:55.880Z,23.13
2022-10-22T14:48:22.743Z,23.11
2022-10-22T14:50:49.382Z,23.31
2022-10-22T14:53:16.899Z,23.06
2022-10-22T14:55:44.673Z,22.93
2022-10-22T14:58:12.385Z,23.38
2022-10-22T15:00:42.029Z,23.09
2022-10-22T15:03:08.912Z,23.12
2022-10-22T15:05:36.271Z,22.93
2022-10-22T15:08:02.907Z,22.49
2022-10-22T15:10:29.450Z,22.71
2022-10-22T15:12:55.916Z,22.32
2022-10-22T15:15:23.231Z,22.08
2022-10-22T15:17:51.204Z,21.89
2022-10-22T15:20:17.705Z,22.29
2022-10-22T15:22:45.268Z,22.19
2022-10-22T15:25:13.554Z,21.99
2022-10-22T15:27:40.102Z,22.28
2022-10-22T15:30:07.778Z,21.96
2022-10-22T15:32:34.328Z,22.03
2022-10-22T15:35:05.863Z,21.95
2022-10-22T15:37:32.442Z,21.53
2022-10-22T15:40:00.434Z,21.43
2022-10-22T15:42:26.946Z,21.30
2022-10-22T15:45:00.034Z,21.51
2022-10-22T15:47:29.312Z,21.16
2022-10-22T15:49:55.803Z,21.44
2022-10-22T15:52:22.566Z,21.23
2022-10-22T15:54:49.062Z,21.24
2022-10-22T15:57:15.673Z,21.52
2022-10-22T15:59:42.212Z,21.55
2022-10-22T16:02:10.788Z,21.27
2022-10-22T16:04:38.294Z,21.26
2022-10-22T16:07:04.788Z,21.10
2022-10-22T16:09:31.315Z,21.06
2022-10-22T16:11:57.950Z,20.94
2022-10-22T16:14:24.661Z,20.87
2022-10-22T16:16:54.163Z,20.73
2022-10-22T16:19:22.519Z,20.38
2022-10-22T16:21:54.797Z,20.32
2022-10-22T16:24:22.277Z,20.15
2022-10-22T16:26:49.580Z,20.54
2022-10-22T16:29:16.246Z,20.39
2022-10-22T16:31:43.986Z,20.09
2022-10-22T16:34:10.813Z,19.96
2022-10-22T16:36:38.192Z,19.81
2022-10-22T16:39:05.943Z,19.84
2022-10-22T16:41:35.346Z,19.94
2022-10-22T16:44:05.488Z,19.61
2022-10-22T16:46:33.279Z,19.45
2022-10-22T16:48:59.890Z,18.74
2022-10-22T16:51:27.997Z,19.26
2022-10-22T16:53:56.364Z,19.45
2022-10-22T16:56:23.779Z,18.98
2022-10-22T16:58:53.231Z,19.21
2022-10-22T17:01:21.731Z,18.90
2022-10-22T17:03:48.302Z,19.27
2022-10-22T17:06:15.320Z,19.52
2022-10-22T17:08:42.463Z,19.10
2022-10-22T17:11:11.711Z,19.07
2022-10-22T17:13:40.563Z,18.87
2022-10-22T17:16:10.060Z,18.93
2022-10-22T17:18:38.365Z,19.00
2022-10-22T17:21:06.266Z,18.96
2022-10-22T17:23:32.765Z,18.74
2022-10-22T17:26:01.791Z,18.87
2022-10-22T17:28:29.388Z,18.96
2022-10-22T17:31:22.402Z,18.65
2022-10-22T17:33:51.505Z,18.30
2022-10-22T17:36:19.247Z,18.12
2022-10-22T17:38:49.112Z,18.10
2022-10-22T17:41:18.777Z,18.00
2022-10-22T17:46:22.835Z,17.61
2022-10-22T17:48:52.770Z,17.92
2022-10-22T17:51:19.870Z,17.30
2022-10-22T17:53:46.878Z,17.76
2022-10-22T17:56:16.100Z,17.47
2022-10-22T17:58:42.669Z,17.58
2022-10-22T18:01:18.000Z,17.35
2022-10-22T18:03:44.877Z,17.42
2022-10-22T18:06:11.684Z,17.56
2022-10-22T18:08:38.220Z,17.29
2022-10-22T18:11:13.889Z,17.18
2022-10-22T18:13:40.388Z,17.11
2022-10-22T18:16:06.985Z,17.03
2022-10-22T18:18:34.602Z,16.97
2022-10-22T18:21:01.866Z,16.93
2022-10-22T18:23:28.422Z,16.89
2022-10-22T18:25:55.267Z,16.67
2022-10-22T18:28:21.888Z,16.94
2022-10-22T18:30:48.721Z,17.07
2022-10-22T18:33:18.276Z,16.98
2022-10-22T18:35:46.291Z,16.85
2022-10-22T18:38:13.092Z,16.74
2022-10-22T18:40:46.661Z,16.39
2022-10-22T18:43:13.291Z,16.53
2022-10-22T18:45:47.646Z,16.39
2022-10-22T18:48:16.689Z,16.59
2022-10-22T18:50:43.318Z,16.62
2022-10-22T18:53:12.241Z,16.50
2022-10-22T18:55:39.697Z,16.28
2022-10-22T18:58:06.611Z,16.24
2022-10-22T19:00:35.352Z,16.30
2022-10-22T19:03:03.146Z,16.50
2022-10-22T19:05:29.902Z,16.15
2022-10-22T19:07:56.410Z,16.20
2022-10-22T19:10:23.119Z,16.39
2022-10-22T19:12:49.658Z,16.08
2022-10-22T19:15:16.416Z,16.39
2022-10-22T19:17:43.257Z,16.10
2022-10-22T19:20:10.384Z,16.30
2022-10-22T19:22:36.883Z,16.27
2022-10-22T19:25:05.985Z,16.26
2022-10-22T19:27:36.328Z,15.98
2022-10-22T19:30:04.634Z,16.45
2022-10-22T19:32:31.329Z,16.45
2022-10-22T19:34:58.068Z,15.95
2022-10-22T19:37:24.747Z,15.87
2022-10-22T19:39:52.313Z,16.02
2022-10-22T19:42:20.715Z,16.12
2022-10-22T19:44:47.323Z,16.02
2022-10-22T19:47:15.310Z,15.92
2022-10-22T19:49:42.628Z,15.89
2022-10-22T19:52:09.335Z,15.89
2022-10-22T19:54:40.626Z,15.81
2022-10-22T19:57:08.431Z,15.66
2022-10-22T19:59:35.904Z,15.73
2022-10-22T20:02:02.524Z,15.85
2022-10-22T20:04:29.975Z,15.75
2022-10-22T20:06:57.028Z,16.00
2022-10-22T20:09:23.965Z,15.93
2022-10-22T20:11:50.958Z,15.88
2022-10-22T20:14:17.698Z,15.70
2022-10-22T20:16:44.291Z,15.63
2022-10-22T20:19:13.397Z,15.49
2022-10-22T20:21:40.792Z,15.58
2022-10-22T20:24:07.823Z,15.49
2022-10-22T20:26:34.695Z,15.36
2022-10-22T20:29:01.729Z,15.42
2022-10-22T20:31:29.758Z,15.75
2022-10-22T20:34:01.096Z,16.01
2022-10-22T20:36:29.544Z,15.80
2022-10-22T20:39:02.212Z,15.86
2022-10-22T20:41:29.739Z,15.59
2022-10-22T20:43:56.998Z,15.61
2022-10-22T20:46:26.696Z,15.55
2022-10-22T20:48:56.617Z,15.35
2022-10-22T20:51:23.391Z,15.32
2022-10-22T20:53:50.316Z,15.36
2022-10-22T20:56:18.023Z,15.40
2022-10-22T20:58:48.942Z,15.73
2022-10-22T21:01:24.262Z,15.53
2022-10-22T21:03:52.002Z,15.29
2022-10-22T21:06:23.037Z,14.99
2022-10-22T21:08:51.530Z,15.24
2022-10-22T21:11:18.954Z,15.34
2022-10-22T21:13:45.838Z,15.52
2022-10-22T21:16:14.674Z,15.49
2022-10-22T21:18:41.948Z,15.46
2022-10-22T21:21:09.762Z,15.48
2022-10-22T21:23:37.271Z,15.58
2022-10-22T21:26:04.614Z,15.56
2022-10-22T21:28:37.097Z,15.55
2022-10-22T21:31:05.689Z,15.43
2022-10-22T21:33:36.099Z,15.33
2022-10-22T21:36:02.771Z,15.45
2022-10-22T21:38:29.594Z,15.27
2022-10-22T21:40:56.147Z,15.39
2022-10-22T21:43:22.685Z,15.28
2022-10-22T21:45:49.307Z,15.26
2022-10-22T21:48:16.507Z,15.26
2022-10-22T21:50:44.246Z,15.31
2022-10-22T21:53:12.112Z,15.28
2022-10-22T21:55:41.957Z,15.18
2022-10-22T21:58:09.030Z,15.10
2022-10-22T22:00:35.891Z,15.06
2022-10-22T22:03:03.450Z,15.13
2022-10-22T22:05:30.063Z,15.10
2022-10-22T22:07:56.721Z,14.93
2022-10-22T22:10:25.238Z,14.99
2022-10-22T22:12:52.455Z,15.00
2022-10-22T22:15:20.403Z,15.21
2022-10-22T22:17:47.173Z,15.23
2022-10-22T22:20:14.007Z,15.08
2022-10-22T22:22:40.889Z,14.78
2022-10-22T22:25:07.997Z,14.88
2022-10-22T22:27:34.644Z,14.92
2022-10-22T22:30:02.525Z,14.84
2022-10-22T22:32:29.585Z,14.67
2022-10-22T22:34:56.532Z,14.72
2022-10-22T22:37:23.439Z,14.69
2022-10-22T22:39:50.616Z,14.68
2022-10-22T22:42:17.194Z,14.73
2022-10-22T22:44:44.025Z,14.79
2022-10-22T22:47:10.757Z,14.78
2022-10-22T22:49:37.379Z,14.68
2022-10-22T22:52:04.649Z,14.66
2022-10-22T22:54:31.509Z,14.63
2022-10-22T22:56:58.700Z,14.52
2022-10-22T22:59:25.252Z,14.46
2022-10-22T23:01:52.253Z,14.40
2022-10-22T23:04:23.684Z,14.41
2022-10-22T23:06:51.415Z,14.60
2022-10-22T23:11:52.046Z,14.31
2022-10-22T23:14:19.975Z,14.45
2022-10-22T23:16:50.115Z,14.53
2022-10-22T23:19:20.618Z,14.60
2022-10-22T23:21:49.903Z,14.52
2022-10-22T23:24:20.502Z,14.26
2022-10-22T23:26:49.788Z,14.30
2022-10-22T23:29:28.125Z,14.20
2022-10-22T23:31:56.169Z,14.13
2022-10-22T23:34:25.709Z,14.17
2022-10-22T23:36:52.758Z,14.25
2022-10-22T23:39:23.579Z,14.18
2022-10-22T23:41:51.592Z,14.15
2022-10-22T23:44:18.185Z,14.13
2022-10-22T23:46:45.022Z,14.23
2022-10-22T23:49:12.653Z,14.22
2022-10-22T23:51:40.174Z,14.22
2022-10-22T23:54:15.245Z,14.09
2022-10-22T23:56:42.071Z,14.07
2022-10-22T23:59:09.272Z,14.05
